sensor_id;sensor_type;location;lat;lon;timestamp;temperature;humidity
25582;DHT22;13462;50.764;4.332;2023-01-10T00:02:11;5.70;99.90
25582;DHT22;13462;50.764;4.332;2023-01-10T00:04:37;5.70;99.90
25582;DHT22;13462;50.764;4.332;2023-01-10T00:07:02;5.70;99.90
25582;DHT22;13462;50.764;4.332;2023-01-10T00:09:28;5.70;99.90
25582;DHT22;13462;50.764;4.332;2023-01-10T00:11:53;5.70;99.90
25582;DHT22;13462;50.764;4.332;2023-01-10T00:14:37;5.80;99.90
25582;DHT22;13462;50.764;4.332;2023-01-10T00:17:03;5.80;99.90
25582;DHT22;13462;50.764;4.332;2023-01-10T00:19:29;5.70;99.90
25582;DHT22;13462;50.764;4.332;2023-01-10T00:21:54;5.60;99.90
25582;DHT22;13462;50.764;4.332;2023-01-10T00:24:22;5.70;99.90
25582;DHT22;13462;50.764;4.332;2023-01-10T00:26:48;5.70;99.90
25582;DHT22;13462;50.764;4.332;2023-01-10T00:29:18;5.70;99.90
25582;DHT22;13462;50.764;4.332;2023-01-10T00:31:44;5.60;99.90
25582;DHT22;13462;50.764;4.332;2023-01-10T00:34:10;5.60;99.90
25582;DHT22;13462;50.764;4.332;2023-01-10T00:36:35;5.70;99.90
25582;DHT22;13462;50.764;4.332;2023-01-10T00:39:00;5.70;99.90
25582;DHT22;13462;50.764;4.332;2023-01-10T00:41:26;5.70;99.90
25582;DHT22;13462;50.764;4.332;2023-01-10T00:44:10;5.70;99.90
25582;DHT22;13462;50.764;4.332;2023-01-10T00:46:35;5.70;99.90
25582;DHT22;13462;50.764;4.332;2023-01-10T00:49:01;5.70;99.90
25582;DHT22;13462;50.764;4.332;2023-01-10T00:51:29;5.80;99.90
25582;DHT22;13462;50.764;4.332;2023-01-10T00:53:55;5.70;99.90
25582;DHT22;13462;50.764;4.332;2023-01-10T00:56:20;5.70;99.90
25582;DHT22;13462;50.764;4.332;2023-01-10T00:58:46;5.70;99.90
25582;DHT22;13462;50.764;4.332;2023-01-10T01:01:11;5.70;99.90
25582;DHT22;13462;50.764;4.332;2023-01-10T01:03:37;5.80;99.90
25582;DHT22;13462;50.764;4.332;2023-01-10T01:06:03;5.90;99.90
25582;DHT22;13462;50.764;4.332;2023-01-10T01:08:29;5.90;99.90
25582;DHT22;13462;50.764;4.332;2023-01-10T01:10:54;5.90;99.90
25582;DHT22;13462;50.764;4.332;2023-01-10T01:13:20;5.90;99.90
25582;DHT22;13462;50.764;4.332;2023-01-10T01:15:46;5.80;99.90
25582;DHT22;13462;50.764;4.332;2023-01-10T01:18:13;5.80;99.90
25582;DHT22;13462;50.764;4.332;2023-01-10T01:20:39;5.70;99.90
25582;DHT22;13462;50.764;4.332;2023-01-10T01:23:05;5.80;99.90
25582;DHT22;13462;50.764;4.332;2023-01-10T01:25:30;5.70;99.90
25582;DHT22;13462;50.764;4.332;2023-01-10T01:27:56;5.70;99.90
25582;DHT22;13462;50.764;4.332;2023-01-10T01:30:21;5.70;99.90
25582;DHT22;13462;50.764;4.332;2023-01-10T01:32:47;5.70;99.90
25582;DHT22;13462;50.764;4.332;2023-01-10T01:35:13;5.60;99.90
25582;DHT22;13462;50.764;4.332;2023-01-10T01:37:39;5.60;99.90
25582;DHT22;13462;50.764;4.332;2023-01-10T01:40:05;5.60;99.90
25582;DHT22;13462;50.764;4.332;2023-01-10T01:42:33;5.60;99.90
25582;DHT22;13462;50.764;4.332;2023-01-10T01:47:37;5.50;99.90
25582;DHT22;13462;50.764;4.332;2023-01-10T01:50:08;5.40;99.90
25582;DHT22;13462;50.764;4.332;2023-01-10T01:52:38;5.40;99.90
25582;DHT22;13462;50.764;4.332;2023-01-10T01:55:03;5.40;99.90
25582;DHT22;13462;50.764;4.332;2023-01-10T01:57:30;5.40;99.90
25582;DHT22;13462;50.764;4.332;2023-01-10T01:59:57;5.40;99.90
25582;DHT22;13462;50.764;4.332;2023-01-10T02:02:27;5.30;99.90
25582;DHT22;13462;50.764;4.332;2023-01-10T02:04:54;5.30;99.90
25582;DHT22;13462;50.764;4.332;2023-01-10T02:07:21;5.20;99.90
25582;DHT22;13462;50.764;4.332;2023-01-10T02:09:49;5.20;99.90
25582;DHT22;13462;50.764;4.332;2023-01-10T02:12:15;5.20;99.90
25582;DHT22;13462;50.764;4.332;2023-01-10T02:14:41;5.10;99.90
25582;DHT22;13462;50.764;4.332;2023-01-10T02:17:08;5.20;99.90
25582;DHT22;13462;50.764;4.332;2023-01-10T02:25:05;5.30;99.90
25582;DHT22;13462;50.764;4.332;2023-01-10T02:33:00;5.40;99.90
25582;DHT22;13462;50.764;4.332;2023-01-10T02:40:49;5.40;99.90
25582;DHT22;13462;50.764;4.332;2023-01-10T02:43:16;5.40;99.90
25582;DHT22;13462;50.764;4.332;2023-01-10T02:45:48;5.30;99.90
25582;DHT22;13462;50.764;4.332;2023-01-10T02:48:17;5.30;99.90
25582;DHT22;13462;50.764;4.332;2023-01-10T02:53:15;5.20;99.90
25582;DHT22;13462;50.764;4.332;2023-01-10T02:58:33;5.10;99.90
25582;DHT22;13462;50.764;4.332;2023-01-10T03:00:59;5.10;99.90
25582;DHT22;13462;50.764;4.332;2023-01-10T03:04:17;5.10;99.90
25582;DHT22;13462;50.764;4.332;2023-01-10T03:06:23;4.90;99.90
25582;DHT22;13462;50.764;4.332;2023-01-10T03:09:02;4.90;99.90
25582;DHT22;13462;50.764;4.332;2023-01-10T03:11:29;4.80;99.90
25582;DHT22;13462;50.764;4.332;2023-01-10T03:16:40;4.80;99.90
25582;DHT22;13462;50.764;4.332;2023-01-10T03:19:11;4.80;99.90
25582;DHT22;13462;50.764;4.332;2023-01-10T03:21:38;4.80;99.90
25582;DHT22;13462;50.764;4.332;2023-01-10T03:24:06;4.80;99.90
25582;DHT22;13462;50.764;4.332;2023-01-10T03:26:38;4.80;99.90
25582;DHT22;13462;50.764;4.332;2023-01-10T03:29:06;4.80;99.90
25582;DHT22;13462;50.764;4.332;2023-01-10T03:31:35;4.80;99.90
25582;DHT22;13462;50.764;4.332;2023-01-10T03:34:02;4.70;99.90
25582;DHT22;13462;50.764;4.332;2023-01-10T03:36:32;4.70;99.90
25582;DHT22;13462;50.764;4.332;2023-01-10T03:44:02;4.80;99.90
25582;DHT22;13462;50.764;4.332;2023-01-10T03:46:53;4.80;99.90
25582;DHT22;13462;50.764;4.332;2023-01-10T03:49:22;4.80;99.90
25582;DHT22;13462;50.764;4.332;2023-01-10T03:51:49;4.80;99.90
25582;DHT22;13462;50.764;4.332;2023-01-10T03:54:15;4.80;99.90
25582;DHT22;13462;50.764;4.332;2023-01-10T03:56:47;4.80;99.90
25582;DHT22;13462;50.764;4.332;2023-01-10T03:59:14;4.80;99.90
25582;DHT22;13462;50.764;4.332;2023-01-10T04:01:40;4.80;99.90
25582;DHT22;13462;50.764;4.332;2023-01-10T04:04:06;4.80;99.90
25582;DHT22;13462;50.764;4.332;2023-01-10T04:06:31;4.90;99.90
25582;DHT22;13462;50.764;4.332;2023-01-10T04:08:57;4.90;99.90
25582;DHT22;13462;50.764;4.332;2023-01-10T04:11:22;4.90;99.90
25582;DHT22;13462;50.764;4.332;2023-01-10T04:13:47;4.90;99.90
25582;DHT22;13462;50.764;4.332;2023-01-10T04:16:13;4.90;99.90
25582;DHT22;13462;50.764;4.332;2023-01-10T04:18:38;4.90;99.90
25582;DHT22;13462;50.764;4.332;2023-01-10T04:21:04;5.00;99.90
25582;DHT22;13462;50.764;4.332;2023-01-10T04:23:31;4.90;99.90
25582;DHT22;13462;50.764;4.332;2023-01-10T04:25:56;4.90;99.90
25582;DHT22;13462;50.764;4.332;2023-01-10T04:28:22;5.00;99.90
25582;DHT22;13462;50.764;4.332;2023-01-10T04:30:47;5.00;99.90
25582;DHT22;13462;50.764;4.332;2023-01-10T04:33:12;5.00;99.90
25582;DHT22;13462;50.764;4.332;2023-01-10T04:35:38;5.00;99.90
25582;DHT22;13462;50.764;4.332;2023-01-10T04:38:03;4.90;99.90
25582;DHT22;13462;50.764;4.332;2023-01-10T04:40:29;4.80;99.90
25582;DHT22;13462;50.764;4.332;2023-01-10T04:42:54;4.80;99.90
25582;DHT22;13462;50.764;4.332;2023-01-10T04:45:20;4.80;99.90
25582;DHT22;13462;50.764;4.332;2023-01-10T04:47:49;4.80;99.90
25582;DHT22;13462;50.764;4.332;2023-01-10T04:50:15;4.80;99.90
25582;DHT22;13462;50.764;4.332;2023-01-10T04:52:41;4.80;99.90
25582;DHT22;13462;50.764;4.332;2023-01-10T04:55:08;4.80;99.90
25582;DHT22;13462;50.764;4.332;2023-01-10T04:57:33;4.90;99.90
25582;DHT22;13462;50.764;4.332;2023-01-10T04:59:59;4.80;99.90
25582;DHT22;13462;50.764;4.332;2023-01-10T05:02:24;4.80;99.90
25582;DHT22;13462;50.764;4.332;2023-01-10T05:04:49;4.80;99.90
25582;DHT22;13462;50.764;4.332;2023-01-10T05:07:15;4.70;99.90
25582;DHT22;13462;50.764;4.332;2023-01-10T05:09:40;4.70;99.90
25582;DHT22;13462;50.764;4.332;2023-01-10T05:12:07;4.70;99.90
25582;DHT22;13462;50.764;4.332;2023-01-10T05:14:32;4.60;99.90
25582;DHT22;13462;50.764;4.332;2023-01-10T05:16:58;4.60;99.90
25582;DHT22;13462;50.764;4.332;2023-01-10T05:19:23;4.50;99.90
25582;DHT22;13462;50.764;4.332;2023-01-10T05:21:49;4.60;99.90
25582;DHT22;13462;50.764;4.332;2023-01-10T05:24:16;4.60;99.90
25582;DHT22;13462;50.764;4.332;2023-01-10T05:26:42;4.60;99.90
25582;DHT22;13462;50.764;4.332;2023-01-10T05:29:10;4.50;99.90
25582;DHT22;13462;50.764;4.332;2023-01-10T05:31:36;4.40;99.90
25582;DHT22;13462;50.764;4.332;2023-01-10T05:34:01;4.30;99.90
25582;DHT22;13462;50.764;4.332;2023-01-10T05:36:27;4.30;99.90
25582;DHT22;13462;50.764;4.332;2023-01-10T05:38:53;4.20;99.90
25582;DHT22;13462;50.764;4.332;2023-01-10T05:41:21;4.20;99.90
25582;DHT22;13462;50.764;4.332;2023-01-10T05:43:48;4.20;99.90
25582;DHT22;13462;50.764;4.332;2023-01-10T05:46:14;4.20;99.90
25582;DHT22;13462;50.764;4.332;2023-01-10T05:48:42;4.30;99.90
25582;DHT22;13462;50.764;4.332;2023-01-10T05:53:47;4.10;99.90
25582;DHT22;13462;50.764;4.332;2023-01-10T05:56:12;4.20;99.90
25582;DHT22;13462;50.764;4.332;2023-01-10T05:58:41;4.10;99.90
25582;DHT22;13462;50.764;4.332;2023-01-10T06:01:06;4.00;99.90
25582;DHT22;13462;50.764;4.332;2023-01-10T06:03:35;4.00;99.90
25582;DHT22;13462;50.764;4.332;2023-01-10T06:06:03;3.90;99.90
25582;DHT22;13462;50.764;4.332;2023-01-10T06:08:32;4.00;99.90
25582;DHT22;13462;50.764;4.332;2023-01-10T06:10:58;4.00;99.90
25582;DHT22;13462;50.764;4.332;2023-01-10T06:13:23;3.90;99.90
25582;DHT22;13462;50.764;4.332;2023-01-10T06:15:49;3.90;99.90
25582;DHT22;13462;50.764;4.332;2023-01-10T06:18:15;3.90;99.90
25582;DHT22;13462;50.764;4.332;2023-01-10T06:20:41;3.80;99.90
25582;DHT22;13462;50.764;4.332;2023-01-10T06:23:07;3.80;99.90
25582;DHT22;13462;50.764;4.332;2023-01-10T06:25:33;3.80;99.90
25582;DHT22;13462;50.764;4.332;2023-01-10T06:28:08;3.80;99.90
25582;DHT22;13462;50.764;4.332;2023-01-10T06:30:34;3.80;99.90
25582;DHT22;13462;50.764;4.332;2023-01-10T06:33:00;3.80;99.90
25582;DHT22;13462;50.764;4.332;2023-01-10T06:35:26;3.70;99.90
25582;DHT22;13462;50.764;4.332;2023-01-10T06:37:52;3.70;99.90
25582;DHT22;13462;50.764;4.332;2023-01-10T06:40:18;3.70;99.90
25582;DHT22;13462;50.764;4.332;2023-01-10T06:42:44;3.80;99.90
25582;DHT22;13462;50.764;4.332;2023-01-10T06:45:14;3.80;99.90
25582;DHT22;13462;50.764;4.332;2023-01-10T06:47:40;3.80;99.90
25582;DHT22;13462;50.764;4.332;2023-01-10T06:50:09;3.80;99.90
25582;DHT22;13462;50.764;4.332;2023-01-10T06:55:22;3.80;99.90
25582;DHT22;13462;50.764;4.332;2023-01-10T06:58:07;3.80;99.90
25582;DHT22;13462;50.764;4.332;2023-01-10T07:00:47;3.70;99.90
25582;DHT22;13462;50.764;4.332;2023-01-10T07:06:29;3.80;99.90
25582;DHT22;13462;50.764;4.332;2023-01-10T07:09:06;3.70;99.90
25582;DHT22;13462;50.764;4.332;2023-01-10T07:11:32;3.80;99.90
25582;DHT22;13462;50.764;4.332;2023-01-10T07:14:44;3.80;99.90
25582;DHT22;13462;50.764;4.332;2023-01-10T07:16:58;3.80;99.90
25582;DHT22;13462;50.764;4.332;2023-01-10T07:19:24;3.80;99.90
25582;DHT22;13462;50.764;4.332;2023-01-10T07:21:50;3.70;99.90
25582;DHT22;13462;50.764;4.332;2023-01-10T07:24:15;3.70;99.90
25582;DHT22;13462;50.764;4.332;2023-01-10T07:26:50;3.70;99.90
25582;DHT22;13462;50.764;4.332;2023-01-10T07:35:27;3.80;99.90
25582;DHT22;13462;50.764;4.332;2023-01-10T07:38:21;3.80;99.90
25582;DHT22;13462;50.764;4.332;2023-01-10T07:41:07;3.90;99.90
25582;DHT22;13462;50.764;4.332;2023-01-10T07:43:42;3.90;99.90
25582;DHT22;13462;50.764;4.332;2023-01-10T07:46:13;3.90;99.90
25582;DHT22;13462;50.764;4.332;2023-01-10T07:48:44;3.90;99.90
25582;DHT22;13462;50.764;4.332;2023-01-10T07:51:11;4.00;99.90
25582;DHT22;13462;50.764;4.332;2023-01-10T07:54:33;4.00;99.90
25582;DHT22;13462;50.764;4.332;2023-01-10T07:56:58;4.10;99.90
25582;DHT22;13462;50.764;4.332;2023-01-10T07:59:26;4.10;99.90
25582;DHT22;13462;50.764;4.332;2023-01-10T08:01:59;4.20;99.90
25582;DHT22;13462;50.764;4.332;2023-01-10T08:04:28;4.30;99.90
25582;DHT22;13462;50.764;4.332;2023-01-10T08:06:54;4.40;99.90
25582;DHT22;13462;50.764;4.332;2023-01-10T08:09:20;4.40;99.90
25582;DHT22;13462;50.764;4.332;2023-01-10T08:11:46;4.50;99.90
25582;DHT22;13462;50.764;4.332;2023-01-10T08:14:11;4.60;99.90
25582;DHT22;13462;50.764;4.332;2023-01-10T08:16:40;4.70;99.90
25582;DHT22;13462;50.764;4.332;2023-01-10T08:19:08;4.80;99.90
25582;DHT22;13462;50.764;4.332;2023-01-10T08:21:36;4.70;99.90
25582;DHT22;13462;50.764;4.332;2023-01-10T08:24:02;4.80;99.90
25582;DHT22;13462;50.764;4.332;2023-01-10T08:26:28;4.90;99.90
25582;DHT22;13462;50.764;4.332;2023-01-10T08:28:54;4.90;99.90
25582;DHT22;13462;50.764;4.332;2023-01-10T08:31:22;4.90;99.90
25582;DHT22;13462;50.764;4.332;2023-01-10T08:33:49;5.00;99.90
25582;DHT22;13462;50.764;4.332;2023-01-10T08:39:31;5.10;99.90
25582;DHT22;13462;50.764;4.332;2023-01-10T08:42:04;5.10;99.90
25582;DHT22;13462;50.764;4.332;2023-01-10T08:44:40;5.00;99.90
25582;DHT22;13462;50.764;4.332;2023-01-10T08:50:12;5.00;99.90
25582;DHT22;13462;50.764;4.332;2023-01-10T08:52:38;5.10;99.90
25582;DHT22;13462;50.764;4.332;2023-01-10T08:55:06;5.10;99.90
25582;DHT22;13462;50.764;4.332;2023-01-10T08:57:32;5.30;99.90
25582;DHT22;13462;50.764;4.332;2023-01-10T08:59:58;5.30;99.90
25582;DHT22;13462;50.764;4.332;2023-01-10T09:02:27;5.40;99.90
25582;DHT22;13462;50.764;4.332;2023-01-10T09:04:52;5.40;99.90
25582;DHT22;13462;50.764;4.332;2023-01-10T09:07:23;5.40;99.90
25582;DHT22;13462;50.764;4.332;2023-01-10T09:09:49;5.40;99.90
25582;DHT22;13462;50.764;4.332;2023-01-10T09:12:25;5.50;99.90
25582;DHT22;13462;50.764;4.332;2023-01-10T09:15:09;5.60;99.90
25582;DHT22;13462;50.764;4.332;2023-01-10T09:17:35;5.70;99.90
25582;DHT22;13462;50.764;4.332;2023-01-10T09:20:07;5.80;99.90
25582;DHT22;13462;50.764;4.332;2023-01-10T09:22:40;5.90;99.90
25582;DHT22;13462;50.764;4.332;2023-01-10T09:25:06;6.00;99.90
25582;DHT22;13462;50.764;4.332;2023-01-10T09:27:32;6.10;99.90
25582;DHT22;13462;50.764;4.332;2023-01-10T09:30:01;6.00;99.90
25582;DHT22;13462;50.764;4.332;2023-01-10T09:32:27;6.10;99.90
25582;DHT22;13462;50.764;4.332;2023-01-10T09:34:52;6.20;99.90
25582;DHT22;13462;50.764;4.332;2023-01-10T09:49:35;6.70;99.90
25582;DHT22;13462;50.764;4.332;2023-01-10T09:52:03;6.70;99.90
25582;DHT22;13462;50.764;4.332;2023-01-10T09:54:43;6.70;99.90
25582;DHT22;13462;50.764;4.332;2023-01-10T09:57:15;6.80;99.90
25582;DHT22;13462;50.764;4.332;2023-01-10T09:59:45;6.80;99.90
25582;DHT22;13462;50.764;4.332;2023-01-10T10:02:18;6.90;99.90
25582;DHT22;13462;50.764;4.332;2023-01-10T10:04:49;7.00;99.90
25582;DHT22;13462;50.764;4.332;2023-01-10T10:07:18;7.00;99.90
25582;DHT22;13462;50.764;4.332;2023-01-10T10:09:43;7.00;99.90
25582;DHT22;13462;50.764;4.332;2023-01-10T10:12:15;7.00;99.90
25582;DHT22;13462;50.764;4.332;2023-01-10T10:25:28;7.10;99.90
25582;DHT22;13462;50.764;4.332;2023-01-10T10:30:55;7.40;99.90
25582;DHT22;13462;50.764;4.332;2023-01-10T10:35:53;7.50;99.90
25582;DHT22;13462;50.764;4.332;2023-01-10T10:40:49;7.70;99.90
25582;DHT22;13462;50.764;4.332;2023-01-10T10:43:20;7.60;99.90
25582;DHT22;13462;50.764;4.332;2023-01-10T10:46:04;7.60;99.90
25582;DHT22;13462;50.764;4.332;2023-01-10T10:48:32;7.60;99.90
25582;DHT22;13462;50.764;4.332;2023-01-10T10:53:24;7.40;99.90
25582;DHT22;13462;50.764;4.332;2023-01-10T10:55:49;7.40;99.90
25582;DHT22;13462;50.764;4.332;2023-01-10T10:58:15;7.40;99.90
25582;DHT22;13462;50.764;4.332;2023-01-10T11:00:40;7.50;99.90
25582;DHT22;13462;50.764;4.332;2023-01-10T11:03:52;7.50;99.90
25582;DHT22;13462;50.764;4.332;2023-01-10T11:05:52;7.40;99.90
25582;DHT22;13462;50.764;4.332;2023-01-10T11:08:18;7.50;99.90
25582;DHT22;13462;50.764;4.332;2023-01-10T11:10:46;7.60;99.90
25582;DHT22;13462;50.764;4.332;2023-01-10T11:13:16;7.70;99.90
25582;DHT22;13462;50.764;4.332;2023-01-10T11:15:45;7.70;99.90
25582;DHT22;13462;50.764;4.332;2023-01-10T11:20:36;7.70;99.90
25582;DHT22;13462;50.764;4.332;2023-01-10T11:23:02;7.70;99.90
25582;DHT22;13462;50.764;4.332;2023-01-10T11:25:28;7.60;99.90
25582;DHT22;13462;50.764;4.332;2023-01-10T11:27:57;7.70;99.90
25582;DHT22;13462;50.764;4.332;2023-01-10T11:30:34;7.70;99.90
25582;DHT22;13462;50.764;4.332;2023-01-10T11:33:02;7.70;99.90
25582;DHT22;13462;50.764;4.332;2023-01-10T11:35:37;7.70;99.90
25582;DHT22;13462;50.764;4.332;2023-01-10T11:40:31;7.80;99.90
25582;DHT22;13462;50.764;4.332;2023-01-10T11:42:58;7.70;99.90
25582;DHT22;13462;50.764;4.332;2023-01-10T11:45:31;7.80;99.90
25582;DHT22;13462;50.764;4.332;2023-01-10T11:47:59;7.80;99.90
25582;DHT22;13462;50.764;4.332;2023-01-10T11:50:27;7.80;99.90
25582;DHT22;13462;50.764;4.332;2023-01-10T11:52:53;7.90;99.90
25582;DHT22;13462;50.764;4.332;2023-01-10T11:55:20;7.90;99.90
25582;DHT22;13462;50.764;4.332;2023-01-10T11:57:53;8.10;99.90
25582;DHT22;13462;50.764;4.332;2023-01-10T12:00:19;8.20;99.90
25582;DHT22;13462;50.764;4.332;2023-01-10T12:02:45;8.10;99.90
25582;DHT22;13462;50.764;4.332;2023-01-10T12:05:12;8.20;99.90
25582;DHT22;13462;50.764;4.332;2023-01-10T12:07:55;8.30;99.90
25582;DHT22;13462;50.764;4.332;2023-01-10T12:10:21;8.30;99.90
25582;DHT22;13462;50.764;4.332;2023-01-10T12:12:57;8.40;99.90
25582;DHT22;13462;50.764;4.332;2023-01-10T12:15:27;8.30;99.90
25582;DHT22;13462;50.764;4.332;2023-01-10T12:17:54;8.30;99.90
25582;DHT22;13462;50.764;4.332;2023-01-10T12:20:20;8.40;99.90
25582;DHT22;13462;50.764;4.332;2023-01-10T12:22:50;8.30;99.90
25582;DHT22;13462;50.764;4.332;2023-01-10T12:27:42;8.10;99.90
25582;DHT22;13462;50.764;4.332;2023-01-10T12:30:51;8.20;99.90
25582;DHT22;13462;50.764;4.332;2023-01-10T12:32:59;8.00;99.90
25582;DHT22;13462;50.764;4.332;2023-01-10T12:35:37;7.80;99.90
25582;DHT22;13462;50.764;4.332;2023-01-10T12:38:15;7.70;99.90
25582;DHT22;13462;50.764;4.332;2023-01-10T12:40:54;7.70;99.90
25582;DHT22;13462;50.764;4.332;2023-01-10T12:43:27;7.70;99.90
25582;DHT22;13462;50.764;4.332;2023-01-10T12:51:19;7.40;99.90
25582;DHT22;13462;50.764;4.332;2023-01-10T12:53:47;7.50;99.90
25582;DHT22;13462;50.764;4.332;2023-01-10T12:56:15;7.50;99.90
25582;DHT22;13462;50.764;4.332;2023-01-10T12:58:42;7.60;99.90
25582;DHT22;13462;50.764;4.332;2023-01-10T13:01:09;7.70;99.90
25582;DHT22;13462;50.764;4.332;2023-01-10T13:03:37;7.50;99.90
25582;DHT22;13462;50.764;4.332;2023-01-10T13:06:03;7.40;99.90
25582;DHT22;13462;50.764;4.332;2023-01-10T13:08:30;7.30;99.90
25582;DHT22;13462;50.764;4.332;2023-01-10T13:10:57;7.30;99.90
25582;DHT22;13462;50.764;4.332;2023-01-10T13:13:33;7.30;99.90
25582;DHT22;13462;50.764;4.332;2023-01-10T13:18:30;7.30;99.90
25582;DHT22;13462;50.764;4.332;2023-01-10T13:21:09;7.30;99.90
25582;DHT22;13462;50.764;4.332;2023-01-10T13:24:20;7.30;99.90
25582;DHT22;13462;50.764;4.332;2023-01-10T13:26:27;7.20;99.90
25582;DHT22;13462;50.764;4.332;2023-01-10T13:29:10;7.20;99.90
25582;DHT22;13462;50.764;4.332;2023-01-10T13:31:36;7.20;99.90
25582;DHT22;13462;50.764;4.332;2023-01-10T13:34:05;7.20;99.90
25582;DHT22;13462;50.764;4.332;2023-01-10T13:36:35;7.00;99.90
25582;DHT22;13462;50.764;4.332;2023-01-10T13:39:03;7.00;99.90
25582;DHT22;13462;50.764;4.332;2023-01-10T13:44:52;6.90;99.90
25582;DHT22;13462;50.764;4.332;2023-01-10T13:50:01;6.90;99.90
25582;DHT22;13462;50.764;4.332;2023-01-10T13:52:47;6.90;99.90
25582;DHT22;13462;50.764;4.332;2023-01-10T13:55:20;6.80;99.90
25582;DHT22;13462;50.764;4.332;2023-01-10T13:57:50;6.70;99.90
25582;DHT22;13462;50.764;4.332;2023-01-10T14:00:20;6.70;99.90
25582;DHT22;13462;50.764;4.332;2023-01-10T14:03:04;6.70;99.90
25582;DHT22;13462;50.764;4.332;2023-01-10T14:05:29;6.70;99.90
25582;DHT22;13462;50.764;4.332;2023-01-10T14:07:55;6.70;99.90
25582;DHT22;13462;50.764;4.332;2023-01-10T14:10:23;6.60;99.90
25582;DHT22;13462;50.764;4.332;2023-01-10T14:13:02;6.70;99.90
25582;DHT22;13462;50.764;4.332;2023-01-10T14:15:43;6.60;99.90
25582;DHT22;13462;50.764;4.332;2023-01-10T14:20:57;6.60;99.90
25582;DHT22;13462;50.764;4.332;2023-01-10T14:23:27;6.60;99.90
25582;DHT22;13462;50.764;4.332;2023-01-10T14:25:54;6.60;99.90
25582;DHT22;13462;50.764;4.332;2023-01-10T14:28:22;6.60;99.90
25582;DHT22;13462;50.764;4.332;2023-01-10T14:33:23;6.60;99.90
25582;DHT22;13462;50.764;4.332;2023-01-10T14:35:49;6.60;99.90
25582;DHT22;13462;50.764;4.332;2023-01-10T14:38:17;6.60;99.90
25582;DHT22;13462;50.764;4.332;2023-01-10T14:40:44;6.60;99.90
25582;DHT22;13462;50.764;4.332;2023-01-10T14:43:21;6.60;99.90
25582;DHT22;13462;50.764;4.332;2023-01-10T14:46:05;6.60;99.90
25582;DHT22;13462;50.764;4.332;2023-01-10T14:48:33;6.60;99.90
25582;DHT22;13462;50.764;4.332;2023-01-10T14:53:45;6.60;99.90
25582;DHT22;13462;50.764;4.332;2023-01-10T14:56:18;6.60;99.90
25582;DHT22;13462;50.764;4.332;2023-01-10T14:58:43;6.60;99.90
25582;DHT22;13462;50.764;4.332;2023-01-10T15:01:09;6.70;99.90
25582;DHT22;13462;50.764;4.332;2023-01-10T15:03:34;6.70;99.90
25582;DHT22;13462;50.764;4.332;2023-01-10T15:06:02;6.60;99.90
25582;DHT22;13462;50.764;4.332;2023-01-10T15:08:28;6.60;99.90
25582;DHT22;13462;50.764;4.332;2023-01-10T15:10:59;6.70;99.90
25582;DHT22;13462;50.764;4.332;2023-01-10T15:13:26;6.60;99.90
25582;DHT22;13462;50.764;4.332;2023-01-10T15:15:52;6.60;99.90
25582;DHT22;13462;50.764;4.332;2023-01-10T15:18:28;6.60;99.90
25582;DHT22;13462;50.764;4.332;2023-01-10T15:20:55;6.50;99.90
25582;DHT22;13462;50.764;4.332;2023-01-10T15:23:21;6.50;99.90
25582;DHT22;13462;50.764;4.332;2023-01-10T15:25:57;6.50;99.90
25582;DHT22;13462;50.764;4.332;2023-01-10T15:28:25;6.50;99.90
25582;DHT22;13462;50.764;4.332;2023-01-10T15:30:51;6.50;99.90
25582;DHT22;13462;50.764;4.332;2023-01-10T15:33:24;6.60;99.90
25582;DHT22;13462;50.764;4.332;2023-01-10T15:35:51;6.50;99.90
25582;DHT22;13462;50.764;4.332;2023-01-10T15:38:18;6.60;99.90
25582;DHT22;13462;50.764;4.332;2023-01-10T15:40:45;6.60;99.90
25582;DHT22;13462;50.764;4.332;2023-01-10T15:45:46;6.60;99.90
25582;DHT22;13462;50.764;4.332;2023-01-10T15:56:25;6.60;99.90
25582;DHT22;13462;50.764;4.332;2023-01-10T15:58:51;6.60;99.90
25582;DHT22;13462;50.764;4.332;2023-01-10T16:01:19;6.70;99.90
25582;DHT22;13462;50.764;4.332;2023-01-10T16:03:51;6.70;99.90
25582;DHT22;13462;50.764;4.332;2023-01-10T16:06:22;6.70;99.90
25582;DHT22;13462;50.764;4.332;2023-01-10T16:08:52;6.70;99.90
25582;DHT22;13462;50.764;4.332;2023-01-10T16:11:20;6.70;99.90
25582;DHT22;13462;50.764;4.332;2023-01-10T16:14:06;6.70;99.90
25582;DHT22;13462;50.764;4.332;2023-01-10T16:19:25;6.70;99.90
25582;DHT22;13462;50.764;4.332;2023-01-10T16:21:51;6.70;99.90
25582;DHT22;13462;50.764;4.332;2023-01-10T16:24:26;6.80;99.90
25582;DHT22;13462;50.764;4.332;2023-01-10T16:26:55;6.80;99.90
25582;DHT22;13462;50.764;4.332;2023-01-10T16:29:37;6.70;99.90
25582;DHT22;13462;50.764;4.332;2023-01-10T16:32:09;6.80;99.90
25582;DHT22;13462;50.764;4.332;2023-01-10T16:34:37;6.80;99.90
25582;DHT22;13462;50.764;4.332;2023-01-10T16:37:03;6.90;99.90
25582;DHT22;13462;50.764;4.332;2023-01-10T16:39:29;6.90;99.90
25582;DHT22;13462;50.764;4.332;2023-01-10T16:41:54;7.00;99.90
25582;DHT22;13462;50.764;4.332;2023-01-10T16:53:37;7.10;99.90
25582;DHT22;13462;50.764;4.332;2023-01-10T16:56:02;7.20;99.90
25582;DHT22;13462;50.764;4.332;2023-01-10T16:58:36;7.20;99.90
25582;DHT22;13462;50.764;4.332;2023-01-10T17:01:02;7.20;99.90
25582;DHT22;13462;50.764;4.332;2023-01-10T17:03:53;7.20;99.90
25582;DHT22;13462;50.764;4.332;2023-01-10T17:06:45;7.20;99.90
25582;DHT22;13462;50.764;4.332;2023-01-10T17:09:29;7.30;99.90
25582;DHT22;13462;50.764;4.332;2023-01-10T17:20:14;7.40;99.90
25582;DHT22;13462;50.764;4.332;2023-01-10T17:22:46;7.60;99.90
25582;DHT22;13462;50.764;4.332;2023-01-10T17:25:24;7.50;99.90
25582;DHT22;13462;50.764;4.332;2023-01-10T17:27:50;7.50;99.90
25582;DHT22;13462;50.764;4.332;2023-01-10T17:30:15;7.60;99.90
25582;DHT22;13462;50.764;4.332;2023-01-10T17:32:41;7.60;99.90
25582;DHT22;13462;50.764;4.332;2023-01-10T17:35:10;7.70;99.90
25582;DHT22;13462;50.764;4.332;2023-01-10T17:37:36;7.70;99.90
25582;DHT22;13462;50.764;4.332;2023-01-10T17:40:02;7.60;99.90
25582;DHT22;13462;50.764;4.332;2023-01-10T17:42:28;7.70;99.90
25582;DHT22;13462;50.764;4.332;2023-01-10T17:44:53;7.80;99.90
25582;DHT22;13462;50.764;4.332;2023-01-10T17:47:28;7.80;99.90
25582;DHT22;13462;50.764;4.332;2023-01-10T17:52:32;7.70;99.90
25582;DHT22;13462;50.764;4.332;2023-01-10T17:55:00;7.80;99.90
25582;DHT22;13462;50.764;4.332;2023-01-10T17:57:30;7.90;99.90
25582;DHT22;13462;50.764;4.332;2023-01-10T18:00:10;8.00;99.90
25582;DHT22;13462;50.764;4.332;2023-01-10T18:02:36;7.90;99.90
25582;DHT22;13462;50.764;4.332;2023-01-10T18:05:02;8.00;99.90
25582;DHT22;13462;50.764;4.332;2023-01-10T18:07:28;8.00;99.90
25582;DHT22;13462;50.764;4.332;2023-01-10T18:09:59;8.00;99.90
25582;DHT22;13462;50.764;4.332;2023-01-10T18:12:25;8.10;99.90
25582;DHT22;13462;50.764;4.332;2023-01-10T18:14:51;8.20;99.90
25582;DHT22;13462;50.764;4.332;2023-01-10T18:17:16;8.20;99.90
25582;DHT22;13462;50.764;4.332;2023-01-10T18:19:42;8.20;99.90
25582;DHT22;13462;50.764;4.332;2023-01-10T18:22:08;8.20;99.90
25582;DHT22;13462;50.764;4.332;2023-01-10T18:34:18;8.50;99.90
25582;DHT22;13462;50.764;4.332;2023-01-10T18:43:07;8.60;99.90